Time;durP1;ratioP1;P1;durP2;ratioP2;P2;SDS_P1;SDS_P2;PMS_P1;PMS_P2;Temp;Humidity;BMP_temperature;BMP_pressure;BME280_temperature;BME280_humidity;BME280_pressure;Samples;Min_cycle;Max_cycle;Signal;HPM_P1;HPM_P2
2022/10/14 00:01:25;;;;;;;;;;;11.80;99.90;;;;;;5073840;28;20677;-80
2022/10/14 00:03:52;;;;;;;436.83;40.25;;;11.90;99.90;;;;;;5072878;28;19916;-80
2022/10/14 00:06:21;;;;;;;318.00;38.35;;;11.90;99.90;;;;;;5072830;28;20090;-81
2022/10/14 00:08:47;;;;;;;261.80;30.50;;;11.90;99.90;;;;;;5054215;28;20131;-81
2022/10/14 00:11:19;;;;;;;398.67;38.05;;;11.90;99.90;;;;;;5056378;28;20124;-81
2022/10/14 00:13:45;;;;;;;285.08;30.15;;;11.80;99.90;;;;;;5056589;28;20400;-81
2022/10/14 00:16:20;;;;;;;311.25;32.63;;;11.80;99.90;;;;;;5072893;28;20108;-81
2022/10/14 00:18:47;;;;;;;427.05;35.28;;;11.80;99.90;;;;;;5056160;28;20040;-81
2022/10/14 00:21:12;;;;;;;;;;;11.80;99.90;;;;;;5056508;28;20059;-81
2022/10/14 00:23:38;;;;;;;246.50;25.00;;;11.80;99.90;;;;;;5056171;28;20033;-81
2022/10/14 00:26:04;;;;;;;275.55;25.55;;;11.70;99.90;;;;;;5073485;28;20052;-81
2022/10/14 00:28:30;;;;;;;383.17;28.88;;;11.80;99.90;;;;;;5073454;28;20055;-81
2022/10/14 00:31:00;;;;;;;352.08;30.70;;;11.70;99.90;;;;;;5056339;28;20044;-81
2022/10/14 00:33:26;;;;;;;350.15;31.92;;;11.60;99.90;;;;;;5087487;28;20443;-80
2022/10/14 00:36:01;;;;;;;306.63;25.38;;;11.60;99.90;;;;;;5072494;28;20044;-81
2022/10/14 00:38:27;;;;;;;375.67;33.10;;;11.60;99.90;;;;;;5072803;28;20488;-81
2022/10/14 00:40:54;;;;;;;372.58;30.65;;;11.60;99.90;;;;;;5055852;28;20044;-81
2022/10/14 00:43:22;;;;;;;294.83;27.10;;;11.50;99.90;;;;;;5072516;28;20047;-81
2022/10/14 00:45:48;;;;;;;335.65;27.65;;;11.50;99.90;;;;;;5072701;28;20052;-81
2022/10/14 00:48:14;;;;;;;236.60;24.65;;;11.50;99.90;;;;;;5056098;28;20047;-81
2022/10/14 00:50:42;;;;;;;;;;;11.50;99.90;;;;;;5056551;28;20557;-81
2022/10/14 00:53:09;;;;;;;;;;;11.40;99.90;;;;;;5073028;28;20010;-81
2022/10/14 00:55:37;;;;;;;155.13;17.35;;;11.40;99.90;;;;;;5055796;28;19916;-81
2022/10/14 00:58:04;;;;;;;183.55;18.88;;;11.40;99.90;;;;;;5055745;28;20041;-81
2022/10/14 01:00:29;;;;;;;222.93;23.13;;;11.40;99.90;;;;;;5055932;28;20036;-81
2022/10/14 01:02:56;;;;;;;277.92;24.40;;;11.40;99.90;;;;;;5055839;28;20039;-80
2022/10/14 01:05:23;;;;;;;158.23;19.58;;;11.40;99.90;;;;;;5055669;28;20036;-80
2022/10/14 01:08:09;;;;;;;257.50;25.05;;;11.40;99.90;;;;;;5071477;28;20049;-81
2022/10/14 01:10:57;;;;;;;185.80;20.50;;;11.40;99.90;;;;;;5071898;28;20127;-81
2022/10/14 01:13:33;;;;;;;195.35;19.23;;;11.30;99.90;;;;;;5054342;28;20036;-81
2022/10/14 01:16:13;;;;;;;195.05;17.80;;;11.30;99.90;;;;;;5056045;28;20704;-81
2022/10/14 01:19:13;;;;;;;221.18;19.02;;;11.30;99.90;;;;;;5072312;28;20434;-81
2022/10/14 01:21:53;;;;;;;196.32;18.35;;;11.30;99.90;;;;;;5071931;28;20140;-80
2022/10/14 01:24:49;;;;;;;236.10;20.33;;;11.30;99.90;;;;;;5070023;28;20040;-81
2022/10/14 01:27:26;;;;;;;247.57;22.73;;;11.20;99.90;;;;;;5071788;28;20048;-81
2022/10/14 01:30:07;;;;;;;243.50;21.17;;;11.20;99.90;;;;;;5072333;28;20476;-81
2022/10/14 01:33:02;;;;;;;164.73;19.52;;;11.20;99.90;;;;;;5070639;28;20086;-81
2022/10/14 01:35:28;;;;;;;115.65;15.45;;;11.20;99.90;;;;;;5070000;28;20058;-77
2022/10/14 01:38:01;;;;;;;286.92;22.33;;;11.10;99.90;;;;;;5051803;28;20036;-77
2022/10/14 01:40:55;;;;;;;279.42;25.60;;;11.20;99.90;;;;;;5069734;28;20043;-77
2022/10/14 01:43:24;;;;;;;212.70;16.88;;;11.20;99.90;;;;;;5067994;28;20147;-77
2022/10/14 01:45:53;;;;;;;178.05;16.85;;;11.10;99.90;;;;;;5068593;28;20055;-77
2022/10/14 01:48:23;;;;;;;187.63;17.23;;;11.10;99.90;;;;;;5069152;28;20040;-77
2022/10/14 01:50:52;;;;;;;129.57;13.95;;;11.10;99.90;;;;;;5069295;28;20065;-77
2022/10/14 01:53:22;;;;;;;193.52;17.13;;;11.10;99.90;;;;;;5069740;28;20538;-77
2022/10/14 01:55:49;;;;;;;236.88;18.27;;;11.10;99.90;;;;;;5066909;28;20407;-76
2022/10/14 01:58:17;;;;;;;145.90;14.82;;;11.20;99.90;;;;;;5069541;28;20037;-77
2022/10/14 02:00:43;;;;;;;207.07;18.88;;;11.10;99.90;;;;;;5069087;28;20037;-77
2022/10/14 02:03:11;;;;;;;202.30;18.13;;;11.10;99.90;;;;;;5036135;28;20028;-77
2022/10/14 02:05:50;;;;;;;187.07;16.20;;;11.10;99.90;;;;;;5052456;28;20037;-77
2022/10/14 02:08:19;;;;;;;247.13;19.92;;;11.00;99.90;;;;;;5068935;28;20048;-77
2022/10/14 02:11:00;;;;;;;115.95;12.18;;;11.10;99.90;;;;;;5050760;28;20119;-77
2022/10/14 02:13:40;;;;;;;192.80;17.67;;;11.00;99.90;;;;;;5051469;28;20434;-77
2022/10/14 02:16:18;;;;;;;234.75;17.48;;;11.00;99.90;;;;;;5068778;28;20076;-77
2022/10/14 02:18:59;;;;;;;245.15;16.52;;;11.00;99.90;;;;;;5052410;28;20043;-78
2022/10/14 02:21:35;;;;;;;183.23;15.02;;;11.00;99.90;;;;;;5050360;28;20063;-78
2022/10/14 02:24:14;;;;;;;206.93;15.18;;;11.00;99.90;;;;;;5052289;28;20109;-78
2022/10/14 02:26:42;;;;;;;217.18;16.08;;;11.00;99.90;;;;;;5069020;28;20492;-78
2022/10/14 02:29:08;;;;;;;288.58;21.60;;;11.00;99.90;;;;;;5069115;28;20053;-78
2022/10/14 02:31:36;;;;;;;165.13;14.10;;;10.90;99.90;;;;;;5069087;28;20037;-78
2022/10/14 02:34:06;;;;;;;198.52;15.57;;;11.00;99.90;;;;;;5068599;28;20036;-78
2022/10/14 02:36:34;;;;;;;184.60;15.85;;;10.90;99.90;;;;;;5068913;28;20056;-78
2022/10/14 02:39:00;;;;;;;169.98;12.73;;;10.90;99.90;;;;;;5068549;28;20049;-78
2022/10/14 02:41:28;;;;;;;;;;;10.90;99.90;;;;;;5052635;28;20040;-78
2022/10/14 02:43:53;;;;;;;179.98;12.90;;;11.00;99.90;;;;;;5068394;28;19916;-78
2022/10/14 02:46:20;;;;;;;196.23;14.97;;;10.90;99.90;;;;;;5035479;28;20128;-78
2022/10/14 02:48:46;;;;;;;210.30;14.35;;;11.00;99.90;;;;;;5069051;28;20474;-78
2022/10/14 02:51:12;;;;;;;236.25;16.02;;;10.90;99.90;;;;;;5068823;28;20423;-78
2022/10/14 02:53:38;;;;;;;243.48;18.45;;;10.90;99.90;;;;;;5051987;28;20044;-77
2022/10/14 02:56:03;;;;;;;215.07;15.47;;;10.90;99.90;;;;;;5068284;28;20036;-78
2022/10/14 02:58:29;;;;;;;149.05;12.32;;;10.90;99.90;;;;;;5069016;28;20283;-78
2022/10/14 03:00:55;;;;;;;248.13;18.38;;;10.80;99.90;;;;;;5055287;28;20037;-78
2022/10/14 03:03:21;;;;;;;129.10;10.33;;;10.80;99.90;;;;;;5053113;28;20048;-77
2022/10/14 03:05:46;;;;;;;198.80;13.43;;;10.80;99.90;;;;;;5072086;28;20086;-78
2022/10/14 03:08:12;;;;;;;145.00;12.07;;;10.80;99.90;;;;;;5055097;28;20455;-78
2022/10/14 03:10:38;;;;;;;186.32;12.85;;;10.70;99.90;;;;;;5055398;28;20375;-78
2022/10/14 03:13:03;;;;;;;121.40;10.10;;;10.80;99.90;;;;;;5055009;28;20033;-78
2022/10/14 03:15:29;;;;;;;160.07;11.17;;;10.70;99.90;;;;;;5071990;28;20032;-78
2022/10/14 03:17:55;;;;;;;168.93;11.87;;;10.80;99.90;;;;;;5054814;28;20335;-78
2022/10/14 03:20:20;;;;;;;166.50;11.52;;;10.80;99.90;;;;;;5055216;28;20166;-78
2022/10/14 03:22:46;;;;;;;167.70;10.30;;;10.70;99.90;;;;;;5072146;28;20116;-78
2022/10/14 03:25:12;;;;;;;143.93;11.02;;;10.70;99.90;;;;;;5071538;28;20290;-78
2022/10/14 03:27:38;;;;;;;232.73;14.30;;;10.70;99.90;;;;;;5038996;28;20040;-78
2022/10/14 03:30:04;;;;;;;153.10;12.85;;;10.80;99.90;;;;;;5071325;28;20281;-78
2022/10/14 03:32:30;;;;;;;177.60;13.75;;;10.60;99.90;;;;;;5055057;28;20053;-78
2022/10/14 03:34:56;;;;;;;192.68;14.77;;;10.60;99.90;;;;;;5054207;28;20064;-78
2022/10/14 03:37:22;;;;;;;135.52;11.90;;;10.60;99.90;;;;;;5055061;28;20041;-78
2022/10/14 03:39:48;;;;;;;240.52;18.55;;;10.60;99.90;;;;;;5071179;28;20388;-78
2022/10/14 03:42:13;;;;;;;205.48;16.33;;;10.70;99.90;;;;;;5071073;28;20119;-78
2022/10/14 03:44:39;;;;;;;140.18;13.75;;;10.70;99.90;;;;;;5054787;28;20055;-78
2022/10/14 03:47:07;;;;;;;175.87;15.47;;;10.60;99.90;;;;;;5070872;28;20731;-78
2022/10/14 03:49:33;;;;;;;153.13;13.38;;;10.70;99.90;;;;;;5071669;28;20279;-77
2022/10/14 03:51:58;;;;;;;209.83;17.50;;;10.70;99.90;;;;;;5070762;28;20067;-78
2022/10/14 03:54:24;;;;;;;156.77;14.60;;;10.70;99.90;;;;;;5071144;28;20032;-78
2022/10/14 03:56:49;;;;;;;116.80;13.80;;;10.70;99.90;;;;;;5054364;28;20395;-76
2022/10/14 03:59:15;;;;;;;138.07;14.37;;;10.70;99.90;;;;;;5053338;28;20805;-78
2022/10/14 04:01:41;;;;;;;91.00;11.55;;;10.70;99.90;;;;;;5070499;28;20045;-78
2022/10/14 04:04:07;;;;;;;105.80;11.67;;;10.70;99.90;;;;;;5069990;28;20044;-78
2022/10/14 04:06:32;;;;;;;97.57;11.23;;;10.70;99.90;;;;;;5070064;28;20036;-76
2022/10/14 04:08:58;;;;;;;116.85;12.40;;;10.70;99.90;;;;;;5069191;28;20075;-78
2022/10/14 04:11:24;;;;;;;94.43;11.47;;;10.70;99.90;;;;;;5069745;28;20485;-77
2022/10/14 04:13:49;;;;;;;85.10;10.53;;;10.80;99.90;;;;;;5053900;28;20286;-77
2022/10/14 04:16:15;;;;;;;85.97;10.87;;;10.80;99.90;;;;;;5070116;28;20052;-76
2022/10/14 04:18:41;;;;;;;132.65;13.32;;;10.60;99.90;;;;;;5054395;28;20041;-77
2022/10/14 04:21:09;;;;;;;122.43;14.43;;;10.80;99.90;;;;;;5070210;28;20044;-76
2022/10/14 04:23:35;;;;;;;106.03;11.50;;;10.80;99.90;;;;;;5070706;28;20282;-76
2022/10/14 04:26:08;;;;;;;164.27;17.17;;;10.80;99.90;;;;;;5069760;28;20051;-76
2022/10/14 04:28:35;;;;;;;148.18;17.23;;;10.90;99.90;;;;;;5070522;28;20044;-77
2022/10/14 04:31:01;;;;;;;121.05;12.60;;;10.90;99.90;;;;;;5036624;28;20087;-77
2022/10/14 04:33:27;;;;;;;213.13;15.07;;;10.90;99.90;;;;;;5053895;28;20037;-77
2022/10/14 04:36:01;;;;;;;179.27;12.25;;;10.70;99.90;;;;;;5069904;28;20040;-76
2022/10/14 04:38:28;;;;;;;156.43;12.75;;;10.70;99.90;;;;;;5051507;28;20540;-77
2022/10/14 04:40:54;;;;;;;152.35;10.82;;;10.70;99.90;;;;;;5053584;28;20499;-76
2022/10/14 04:43:20;;;;;;;194.63;13.77;;;10.60;99.90;;;;;;5053303;28;20040;-76
2022/10/14 04:45:47;;;;;;;113.47;11.38;;;10.60;99.90;;;;;;5053330;28;20040;-78
2022/10/14 04:48:12;;;;;;;164.30;12.00;;;11.00;99.90;;;;;;5069975;28;20488;-78
2022/10/14 04:50:38;;;;;;;284.33;18.25;;;10.50;99.90;;;;;;5070090;28;20129;-78
2022/10/14 04:53:04;;;;;;;173.40;13.25;;;10.50;99.90;;;;;;5036487;28;20388;-78
2022/10/14 04:55:29;;;;;;;132.80;11.07;;;10.50;99.90;;;;;;5070358;28;20074;-79
2022/10/14 04:57:55;;;;;;;125.13;10.67;;;10.50;99.90;;;;;;5070134;28;20032;-78
2022/10/14 05:00:21;;;;;;;134.13;12.13;;;10.50;99.90;;;;;;5070008;28;20036;-78
2022/10/14 05:02:46;;;;;;;126.47;12.20;;;10.50;99.90;;;;;;5053641;28;20079;-78
2022/10/14 05:05:13;;;;;;;183.60;13.60;;;10.50;99.90;;;;;;5053170;28;20790;-78
2022/10/14 05:07:40;;;;;;;107.97;10.02;;;10.50;99.90;;;;;;5069732;28;20040;-78
2022/10/14 05:10:06;;;;;;;;;;;10.50;99.90;;;;;;5069907;28;20044;-79
2022/10/14 05:12:32;;;;;;;178.60;14.32;;;10.50;99.90;;;;;;5069859;28;19928;-78
2022/10/14 05:14:58;;;;;;;127.70;12.05;;;10.50;99.90;;;;;;5070064;28;20036;-78
2022/10/14 05:17:24;;;;;;;167.25;13.25;;;10.50;99.90;;;;;;5053237;28;20037;-78
2022/10/14 05:19:49;;;;;;;119.00;12.13;;;10.50;99.90;;;;;;5053360;28;20081;-78
2022/10/14 05:22:15;;;;;;;92.97;10.83;;;10.50;99.90;;;;;;5052277;28;20282;-78
2022/10/14 05:24:41;;;;;;;153.70;12.00;;;10.50;99.90;;;;;;5033765;28;20032;-78
2022/10/14 05:27:06;;;;;;;184.57;16.23;;;10.50;99.90;;;;;;5052783;28;20290;-78
2022/10/14 05:29:32;;;;;;;106.23;11.13;;;10.60;99.90;;;;;;5070114;28;20178;-78
2022/10/14 05:31:58;;;;;;;94.67;12.27;;;10.60;99.90;;;;;;5069610;28;20299;-78
2022/10/14 05:34:23;;;;;;;96.70;11.27;;;10.60;99.90;;;;;;5052501;28;21607;-78
2022/10/14 05:36:49;;;;;;;78.47;11.20;;;10.60;99.90;;;;;;5036564;28;20658;-78
2022/10/14 05:39:14;;;;;;;59.87;9.63;;;10.60;99.90;;;;;;5052670;28;20028;-78
2022/10/14 05:41:40;;;;;;;59.93;10.33;;;10.60;99.90;;;;;;5070164;28;20036;-79
2022/10/14 05:44:06;;;;;;;76.73;10.83;;;10.60;99.90;;;;;;5052566;28;20290;-78
2022/10/14 05:46:31;;;;;;;112.30;13.07;;;10.70;99.90;;;;;;5070110;28;20071;-77
2022/10/14 05:48:59;;;;;;;87.13;14.43;;;10.70;99.90;;;;;;5051925;28;20294;-74
2022/10/14 05:51:25;;;;;;;100.22;13.40;;;10.60;99.90;;;;;;5069911;28;20377;-80
2022/10/14 05:53:51;;;;;;;53.67;10.73;;;10.60;99.90;;;;;;5069952;28;20040;-79
2022/10/14 05:56:16;;;;;;;54.83;11.23;;;10.60;99.90;;;;;;5052971;28;20032;-79
2022/10/14 05:58:42;;;;;;;55.00;10.63;;;10.60;99.90;;;;;;5069949;28;20118;-79
2022/10/14 06:01:09;;;;;;;61.78;11.48;;;10.60;99.90;;;;;;5035936;28;21052;-80
2022/10/14 06:03:35;;;;;;;79.10;11.80;;;10.70;99.90;;;;;;5069860;28;20119;-80
2022/10/14 06:06:01;;;;;;;62.72;12.43;;;10.70;99.90;;;;;;5069916;28;20127;-79
2022/10/14 06:08:27;;;;;;;52.20;11.45;;;10.60;99.90;;;;;;5069504;28;20041;-80
2022/10/14 06:10:53;;;;;;;66.53;13.02;;;10.70;99.90;;;;;;5052864;28;20036;-79
2022/10/14 06:13:20;;;;;;;47.40;10.77;;;10.70;99.90;;;;;;5069434;28;20502;-79
2022/10/14 06:15:46;;;;;;;94.95;14.80;;;10.70;99.90;;;;;;5053290;28;20441;-80
2022/10/14 06:18:11;;;;;;;71.30;12.83;;;10.70;99.90;;;;;;5069334;28;20071;-79
2022/10/14 06:20:37;;;;;;;77.60;13.40;;;10.70;99.90;;;;;;5053041;28;20286;-79
2022/10/14 06:23:03;;;;;;;91.27;11.77;;;10.70;99.90;;;;;;5052761;28;20044;-79
2022/10/14 06:25:30;;;;;;;64.80;12.88;;;10.70;99.90;;;;;;5069226;28;20059;-79
2022/10/14 06:28:04;;;;;;;109.72;15.05;;;11.00;99.90;;;;;;5069171;28;20044;-80
2022/10/14 06:30:30;;;;;;;75.35;13.90;;;10.70;99.90;;;;;;5069044;28;20036;-80
2022/10/14 06:32:56;;;;;;;98.35;15.75;;;10.70;99.90;;;;;;5070360;28;20121;-79
2022/10/14 06:35:22;;;;;;;57.77;12.60;;;11.00;99.90;;;;;;5072472;28;20099;-79
2022/10/14 06:37:47;;;;;;;71.37;13.33;;;10.80;99.90;;;;;;5073767;28;20141;-80
2022/10/14 06:40:13;;;;;;;62.13;13.50;;;10.80;99.90;;;;;;5056409;28;20289;-79
2022/10/14 06:42:39;;;;;;;96.65;14.85;;;10.80;99.90;;;;;;5056476;28;20094;-80
2022/10/14 06:45:05;;;;;;;112.43;14.83;;;10.90;99.90;;;;;;5056297;28;20051;-80
2022/10/14 06:47:31;;;;;;;93.82;14.55;;;10.90;99.90;;;;;;5056170;28;20291;-79
2022/10/14 06:50:00;;;;;;;85.43;13.98;;;10.90;99.90;;;;;;5056219;28;20677;-79
2022/10/14 06:52:25;;;;;;;70.57;13.98;;;10.90;99.90;;;;;;5072583;28;20033;-78
2022/10/14 06:54:51;;;;;;;88.73;15.17;;;10.90;99.90;;;;;;5073004;28;20032;-78
2022/10/14 06:57:17;;;;;;;77.50;15.00;;;11.10;99.90;;;;;;5072862;28;20037;-79
2022/10/14 06:59:43;;;;;;;83.53;12.80;;;10.90;99.90;;;;;;5072923;28;20287;-79
2022/10/14 07:02:09;;;;;;;59.42;13.45;;;10.90;99.90;;;;;;5072552;28;20298;-80
2022/10/14 07:04:35;;;;;;;98.68;15.65;;;10.90;99.90;;;;;;5072229;28;20040;-80
2022/10/14 07:07:01;;;;;;;59.50;13.18;;;10.90;99.90;;;;;;5056114;28;20067;-79
2022/10/14 07:09:28;;;;;;;70.00;13.90;;;10.90;99.90;;;;;;5072515;28;20128;-80
2022/10/14 07:11:53;;;;;;;84.18;15.02;;;11.00;99.90;;;;;;5055939;28;20041;-79
2022/10/14 07:14:19;;;;;;;60.83;14.02;;;11.00;99.90;;;;;;5072010;28;20086;-80
2022/10/14 07:16:45;;;;;;;66.72;14.18;;;11.00;99.90;;;;;;5072874;28;20032;-80
2022/10/14 07:19:11;;;;;;;75.90;14.18;;;11.00;99.90;;;;;;5072784;28;20024;-79
2022/10/14 07:21:37;;;;;;;107.35;17.20;;;11.10;99.90;;;;;;5055352;28;20052;-80
2022/10/14 07:24:03;;;;;;;87.10;15.90;;;11.10;99.90;;;;;;5072255;28;20499;-79
2022/10/14 07:26:32;;;;;;;74.88;16.42;;;11.20;99.90;;;;;;5072382;28;20393;-79
2022/10/14 07:28:58;;;;;;;74.43;16.25;;;11.20;99.90;;;;;;5055383;28;20049;-79
2022/10/14 07:31:23;;;;;;;64.22;16.17;;;11.20;99.90;;;;;;5039243;28;20040;-80
2022/10/14 07:33:49;;;;;;;58.30;14.77;;;11.20;99.90;;;;;;5072795;28;20037;-80
2022/10/14 07:36:16;;;;;;;56.97;14.77;;;11.20;99.90;;;;;;5072088;28;20344;-80
2022/10/14 07:38:43;;;;;;;66.55;17.25;;;11.30;99.90;;;;;;5055730;28;20813;-80
2022/10/14 07:41:16;;;;;;;66.00;17.90;;;11.30;99.90;;;;;;5055735;28;20376;-80
2022/10/14 07:43:45;;;;;;;64.22;16.35;;;11.30;99.90;;;;;;5055300;28;20048;-80
2022/10/14 07:46:12;;;;;;;89.97;18.55;;;11.30;99.90;;;;;;5067188;28;20399;-80
2022/10/14 07:48:39;;;;;;;69.20;17.52;;;11.30;99.90;;;;;;5072184;28;20102;-80
2022/10/14 07:51:08;;;;;;;;;;;11.40;99.90;;;;;;5072752;28;20036;-81
2022/10/14 07:53:35;;;;;;;51.90;15.30;;;11.40;99.90;;;;;;5055145;28;20267;-80
2022/10/14 07:56:01;;;;;;;49.42;16.88;;;11.40;99.90;;;;;;5055488;28;20086;-80
2022/10/14 07:58:29;;;;;;;51.03;16.08;;;11.40;99.90;;;;;;5054990;28;20067;-80
2022/10/14 08:00:56;;;;;;;57.15;16.17;;;11.30;99.90;;;;;;5071783;28;20065;-80
2022/10/14 08:03:23;;;;;;;51.67;15.85;;;11.40;99.90;;;;;;5055075;28;20170;-80
2022/10/14 08:05:49;;;;;;;49.08;16.67;;;11.40;99.90;;;;;;5070032;28;20492;-80
2022/10/14 08:08:17;;;;;;;56.83;16.80;;;11.40;99.90;;;;;;5055174;28;20142;-80
2022/10/14 08:10:43;;;;;;;43.45;15.77;;;11.50;99.90;;;;;;5070962;28;20041;-80
2022/10/14 08:13:09;;;;;;;45.88;16.10;;;11.50;99.90;;;;;;5072046;28;20393;-78
2022/10/14 08:15:37;;;;;;;45.42;16.52;;;11.60;99.90;;;;;;5071200;28;20037;-78
2022/10/14 08:18:04;;;;;;;40.20;15.85;;;11.50;99.90;;;;;;5071225;28;20036;-78
2022/10/14 08:20:31;;;;;;;45.70;16.17;;;11.60;99.90;;;;;;5071487;28;20487;-78
2022/10/14 08:22:58;;;;;;;42.00;15.43;;;11.60;99.90;;;;;;5055151;28;20415;-78
2022/10/14 08:25:23;;;;;;;40.03;15.18;;;11.70;99.90;;;;;;5071356;28;21342;-78
2022/10/14 08:27:50;;;;;;;39.10;15.85;;;11.70;99.90;;;;;;5055156;28;20036;-78
2022/10/14 08:30:16;;;;;;;43.33;16.38;;;11.80;99.90;;;;;;5054684;28;20082;-78
2022/10/14 08:32:42;;;;;;;42.30;15.48;;;11.80;99.90;;;;;;5071024;28;20055;-77
2022/10/14 08:35:09;;;;;;;41.92;16.33;;;11.80;99.90;;;;;;5070201;28;20512;-78
2022/10/14 08:37:35;;;;;;;41.20;15.57;;;11.80;99.90;;;;;;5069850;28;20051;-78
2022/10/14 08:40:02;;;;;;;44.45;16.20;;;11.80;99.90;;;;;;5070071;28;20381;-78
2022/10/14 08:42:36;;;;;;;41.53;16.27;;;11.80;99.90;;;;;;5069858;28;20098;-78
2022/10/14 08:45:08;;;;;;;39.40;15.00;;;11.90;99.90;;;;;;5069558;28;20044;-78
2022/10/14 08:47:41;;;;;;;37.22;15.48;;;11.90;99.90;;;;;;5069601;28;20036;-78
2022/10/14 08:50:25;;;;;;;39.05;16.08;;;12.00;99.90;;;;;;5069616;28;20066;-77
2022/10/14 08:52:59;;;;;;;41.92;17.30;;;12.00;99.90;;;;;;5070032;28;20515;-78
2022/10/14 08:55:36;;;;;;;39.85;16.60;;;12.00;99.90;;;;;;5069619;28;20041;-78
2022/10/14 08:58:17;;;;;;;37.53;15.77;;;12.10;99.90;;;;;;5067536;28;20028;-79
2022/10/14 09:00:48;;;;;;;39.55;16.60;;;12.20;99.90;;;;;;5069077;28;20032;-74
2022/10/14 09:03:31;;;;;;;35.33;16.48;;;12.20;99.90;;;;;;5069304;28;20040;-77
2022/10/14 09:05:59;;;;;;;40.05;16.52;;;12.40;99.90;;;;;;5053168;28;20491;-79
2022/10/14 09:08:37;;;;;;;33.20;14.82;;;12.30;99.90;;;;;;5069169;28;20041;-76
2022/10/14 09:11:08;;;;;;;37.13;15.35;;;12.40;99.90;;;;;;5067537;28;20045;-76
2022/10/14 09:13:38;;;;;;;37.22;16.17;;;12.40;99.90;;;;;;5068562;28;20106;-75
2022/10/14 09:16:26;;;;;;;34.60;15.48;;;12.40;99.90;;;;;;5069022;28;20552;-75
2022/10/14 09:19:03;;;;;;;32.50;16.15;;;12.40;99.90;;;;;;5085354;28;20050;-75
2022/10/14 09:21:39;;;;;;;32.20;16.30;;;12.30;99.90;;;;;;5068328;28;20630;-75
2022/10/14 09:24:25;;;;;;;34.28;16.00;;;12.30;99.90;;;;;;5052371;28;20075;-75
2022/10/14 09:27:03;;;;;;;34.00;15.57;;;12.30;99.90;;;;;;5066699;28;20039;-76
2022/10/14 09:29:55;;;;;;;34.92;17.00;;;12.30;99.90;;;;;;5068515;28;20496;-76
2022/10/14 09:32:27;;;;;;;37.63;17.55;;;12.40;99.90;;;;;;5063986;28;20040;-76
2022/10/14 09:34:53;;;;;;;39.80;17.92;;;12.40;99.90;;;;;;5067829;28;20040;-75
2022/10/14 09:37:30;;;;;;;;;;;12.40;99.90;;;;;;5068815;28;20051;-75
2022/10/14 09:39:59;;;;;;;32.78;15.25;;;12.40;99.90;;;;;;5068284;28;19916;-75
2022/10/14 09:42:40;;;;;;;36.92;16.60;;;12.50;99.90;;;;;;5068313;28;20066;-75
2022/10/14 09:45:13;;;;;;;36.70;17.58;;;12.50;99.90;;;;;;5067954;28;20032;-76
2022/10/14 09:48:06;;;;;;;36.30;16.77;;;12.60;99.90;;;;;;5068241;28;20106;-76
2022/10/14 09:50:38;;;;;;;39.17;17.83;;;12.60;99.90;;;;;;5066399;28;20071;-75
2022/10/14 09:53:14;;;;;;;38.92;17.85;;;12.70;99.90;;;;;;5068056;28;20507;-75
2022/10/14 09:56:13;;;;;;;39.97;17.10;;;12.80;99.90;;;;;;5068408;28;20048;-75
2022/10/14 09:58:44;;;;;;;36.10;16.42;;;12.80;99.90;;;;;;5035603;28;20539;-75
2022/10/14 10:01:15;;;;;;;36.00;17.20;;;12.90;99.90;;;;;;5068037;28;20072;-75
2022/10/14 10:03:44;;;;;;;37.08;17.40;;;12.90;99.90;;;;;;5068386;28;20484;-76
2022/10/14 10:06:18;;;;;;;43.95;18.25;;;12.90;99.90;;;;;;5051512;28;20365;-76
2022/10/14 10:08:52;;;;;;;35.65;17.73;;;12.90;99.90;;;;;;5053830;28;20052;-76
2022/10/14 10:11:34;;;;;;;41.47;18.42;;;13.00;99.90;;;;;;5071825;28;20040;-75
2022/10/14 10:14:20;;;;;;;39.17;16.73;;;13.00;99.90;;;;;;5072082;28;20036;-75
2022/10/14 10:16:46;;;;;;;34.25;17.45;;;13.00;99.90;;;;;;5071899;28;20041;-76
2022/10/14 10:19:28;;;;;;;37.85;17.15;;;13.00;99.90;;;;;;5072041;28;20037;-77
2022/10/14 10:22:13;;;;;;;38.63;17.30;;;13.00;99.90;;;;;;5070871;28;20041;-76
2022/10/14 10:24:39;;;;;;;35.15;16.02;;;13.00;99.90;;;;;;5071660;28;20040;-75
2022/10/14 10:27:27;;;;;;;37.33;16.30;;;13.00;99.90;;;;;;5055400;28;20040;-75
2022/10/14 10:29:55;;;;;;;;;;;13.00;99.90;;;;;;5071648;28;20041;-76
2022/10/14 10:32:29;;;;;;;33.05;15.13;;;13.10;99.90;;;;;;5071988;28;19943;-76
2022/10/14 10:35:05;;;;;;;35.83;16.50;;;13.10;99.90;;;;;;5071804;28;20056;-75
2022/10/14 10:37:53;;;;;;;31.52;14.65;;;13.10;99.90;;;;;;5072023;28;20400;-76
2022/10/14 10:40:29;;;;;;;;;;;13.20;99.90;;;;;;5072384;28;20044;-76
2022/10/14 10:43:06;;;;;;;33.40;14.13;;;13.20;99.90;;;;;;5071822;28;20338;-75
2022/10/14 10:45:35;;;;;;;30.27;13.10;;;13.20;99.90;;;;;;5071535;28;20032;-76
2022/10/14 10:48:10;;;;;;;27.75;12.75;;;13.20;99.90;;;;;;5071279;28;20043;-75
2022/10/14 10:50:57;;;;;;;31.75;14.30;;;13.30;99.90;;;;;;5070939;28;20048;-78
2022/10/14 10:54:01;;;;;;;27.02;12.95;;;13.30;99.90;;;;;;5071443;28;20100;-76
2022/10/14 10:56:37;;;;;;;29.83;12.55;;;13.40;99.90;;;;;;5054182;28;20036;-75
2022/10/14 10:59:42;;;;;;;23.15;11.48;;;13.40;99.90;;;;;;5071678;28;20456;-77
2022/10/14 11:02:43;;;;;;;22.15;11.57;;;13.40;99.90;;;;;;5069429;28;20040;-77
2022/10/14 11:05:25;;;;;;;25.33;11.82;;;13.30;99.90;;;;;;5053258;28;20278;-76
2022/10/14 11:14:45;;;;;;;21.92;10.18;;;13.30;99.90;;;;;;5071300;28;20040;-75
2022/10/14 11:17:10;;;;;;;18.02;8.45;;;13.30;99.90;;;;;;5071334;28;20060;-75
2022/10/14 11:20:14;;;;;;;16.38;7.70;;;13.30;99.90;;;;;;5070017;28;20121;-76
2022/10/14 11:22:59;;;;;;;19.15;8.35;;;13.30;99.90;;;;;;5068038;28;20076;-75
2022/10/14 11:25:50;;;;;;;19.02;8.65;;;13.30;99.90;;;;;;5071129;28;20043;-75
2022/10/14 11:28:45;;;;;;;19.88;9.05;;;13.30;99.90;;;;;;5070737;28;20044;-75
2022/10/14 11:31:50;;;;;;;20.25;8.27;;;13.40;99.90;;;;;;5070085;28;20047;-76
2022/10/14 11:34:24;;;;;;;18.58;8.50;;;13.40;99.90;;;;;;5069103;28;20511;-76
2022/10/14 11:37:19;;;;;;;17.10;7.95;;;13.40;99.90;;;;;;5053322;28;20060;-75
2022/10/14 11:39:52;;;;;;;17.10;7.32;;;13.40;99.90;;;;;;5070311;28;20083;-76
2022/10/14 11:42:34;;;;;;;18.10;8.45;;;13.40;99.90;;;;;;5070604;28;20385;-75
2022/10/14 11:45:15;;;;;;;18.98;8.90;;;13.40;99.90;;;;;;5068733;28;20128;-75
2022/10/14 11:47:45;;;;;;;17.70;8.18;;;13.40;99.90;;;;;;5069222;28;20044;-76
2022/10/14 11:50:16;;;;;;;15.65;7.32;;;13.40;99.90;;;;;;5068132;28;20032;-76
2022/10/14 11:53:12;;;;;;;15.32;7.03;;;13.50;99.90;;;;;;5069783;28;20135;-75
2022/10/14 11:55:43;;;;;;;14.48;6.63;;;13.50;99.90;;;;;;5070413;28;20040;-76
2022/10/14 11:58:19;;;;;;;12.32;6.10;;;13.60;99.90;;;;;;5070610;28;20774;-76
2022/10/14 12:00:50;;;;;;;15.53;6.27;;;13.50;99.90;;;;;;5069803;28;20048;-76
2022/10/14 12:03:36;;;;;;;14.95;6.72;;;13.50;99.90;;;;;;5070379;28;20775;-76
2022/10/14 12:06:29;;;;;;;16.33;6.67;;;13.50;99.90;;;;;;5069974;28;20499;-75
2022/10/14 12:08:56;;;;;;;12.90;6.45;;;13.50;99.90;;;;;;5069278;28;20807;-76
2022/10/14 12:11:28;;;;;;;15.95;7.38;;;13.50;99.90;;;;;;5067333;28;20084;-76
2022/10/14 12:14:03;;;;;;;16.65;8.02;;;13.50;99.90;;;;;;5069544;28;20125;-76
2022/10/14 12:16:30;;;;;;;14.43;7.28;;;13.50;99.90;;;;;;5069820;28;20083;-76
2022/10/14 12:18:56;;;;;;;17.85;8.00;;;13.50;99.90;;;;;;5069980;28;20044;-76
2022/10/14 12:21:50;;;;;;;14.48;7.53;;;13.50;99.90;;;;;;5069489;28;20133;-76
2022/10/14 12:24:19;;;;;;;16.13;7.43;;;13.50;99.90;;;;;;5069233;28;20047;-76
2022/10/14 12:26:55;;;;;;;14.07;7.47;;;13.50;99.90;;;;;;5067939;28;20048;-75
2022/10/14 12:29:24;;;;;;;16.15;8.20;;;13.50;99.90;;;;;;5069263;28;20052;-75
2022/10/14 12:32:15;;;;;;;15.32;7.97;;;13.50;99.90;;;;;;5068157;28;20037;-76
2022/10/14 12:34:46;;;;;;;16.50;8.57;;;13.50;99.90;;;;;;5069251;28;20032;-76
2022/10/14 12:37:33;;;;;;;16.73;8.13;;;13.50;99.90;;;;;;5068939;28;20044;-76
2022/10/14 12:40:05;;;;;;;17.98;9.05;;;13.60;99.90;;;;;;5068435;28;20039;-76
2022/10/14 12:42:35;;;;;;;18.10;8.57;;;13.50;99.90;;;;;;5068883;28;20518;-76
2022/10/14 12:45:18;;;;;;;20.80;9.50;;;13.50;99.90;;;;;;5068806;28;20044;-75
2022/10/14 12:47:44;;;;;;;19.67;9.55;;;13.50;99.90;;;;;;5069314;28;20100;-75
2022/10/14 12:50:13;;;;;;;17.85;8.95;;;13.50;99.90;;;;;;5069038;28;20040;-76
2022/10/14 12:52:39;;;;;;;20.13;10.73;;;13.50;99.90;;;;;;5069276;28;20052;-75
2022/10/14 12:55:18;;;;;;;19.02;9.27;;;13.50;99.90;;;;;;5069161;28;20384;-76